createdAt,value
2018-09-02T00:03:11.879Z,25.9
2018-09-02T00:08:10.193Z,25.9
2018-09-02T00:13:08.440Z,25.9
2018-09-02T00:18:06.894Z,25.9
2018-09-02T00:23:05.112Z,25.8
2018-09-02T00:28:03.791Z,25.4
2018-09-02T00:33:02.228Z,25.8
2018-09-02T00:38:00.958Z,25.7
2018-09-02T00:42:59.581Z,25.7
2018-09-02T00:47:57.847Z,25.7
2018-09-02T00:52:56.130Z,25.7
2018-09-02T00:57:54.574Z,25.7
2018-09-02T01:02:53.125Z,25.6
2018-09-02T01:07:51.054Z,25.6
2018-09-02T01:12:49.652Z,25.6
2018-09-02T01:17:47.991Z,25.5
2018-09-02T01:22:46.526Z,25.5
2018-09-02T01:27:44.914Z,25.5
2018-09-02T01:32:42.884Z,25.4
2018-09-02T01:37:41.468Z,25.4
2018-09-02T01:42:39.714Z,25.4
2018-09-02T01:47:38.056Z,25.4
2018-09-02T01:52:36.341Z,25.3
2018-09-02T01:57:34.682Z,24.8
2018-09-02T02:02:33.152Z,25.2
2018-09-02T02:07:31.417Z,25.2
2018-09-02T02:12:29.897Z,25.2
2018-09-02T02:17:28.409Z,25.1
2018-09-02T02:22:26.979Z,25.1
2018-09-02T02:27:25.056Z,25.1
2018-09-02T02:32:23.297Z,25.1
2018-09-02T02:37:21.791Z,25
2018-09-02T02:42:19.653Z,25
2018-09-02T02:47:17.558Z,25
2018-09-02T02:52:15.958Z,24.9
2018-09-02T02:57:14.418Z,24.9
2018-09-02T03:02:12.934Z,24.9
2018-09-02T03:07:11.066Z,24.9
2018-09-02T03:12:09.605Z,24.8
2018-09-02T03:17:08.091Z,24.8
2018-09-02T03:22:06.645Z,24.7
2018-09-02T03:27:05.364Z,24.7
2018-09-02T03:32:03.926Z,24.3
2018-09-02T03:37:02.260Z,24.6
2018-09-02T03:42:00.767Z,24.6
2018-09-02T03:46:58.937Z,24.5
2018-09-02T03:51:57.647Z,24.5
2018-09-02T03:56:55.628Z,24.5
2018-09-02T04:01:54.042Z,24.4
2018-09-02T04:06:52.422Z,24.4
2018-09-02T04:11:50.472Z,24.3
2018-09-02T04:16:48.508Z,24.3
2018-09-02T04:21:47.075Z,24.2
2018-09-02T04:26:45.359Z,23.8
2018-09-02T04:31:43.477Z,24.2
2018-09-02T04:36:42.041Z,24.2
2018-09-02T04:41:40.288Z,24.2
2018-09-02T04:46:38.855Z,24.2
2018-09-02T04:51:37.143Z,24.2
2018-09-02T04:56:35.713Z,24.2
2018-09-02T05:01:34.175Z,24.1
2018-09-02T05:06:32.685Z,24.1
2018-09-02T05:11:30.810Z,24.1
2018-09-02T05:16:28.749Z,24.1
2018-09-02T05:21:27.204Z,24.1
2018-09-02T05:26:25.725Z,23.6
2018-09-02T05:31:24.227Z,24
2018-09-02T05:36:22.692Z,23.6
2018-09-02T05:41:21.009Z,23.6
2018-09-02T05:46:19.668Z,24
2018-09-02T05:51:18.054Z,24.1
2018-09-02T05:56:16.528Z,23.8
2018-09-02T06:01:14.546Z,23.7
2018-09-02T06:06:13.203Z,23.8
2018-09-02T06:11:11.295Z,23.8
2018-09-02T06:16:09.786Z,24.4
2018-09-02T06:21:08.037Z,24.4
2018-09-02T06:26:06.543Z,24.4
2018-09-02T06:31:04.914Z,24.5
2018-09-02T06:36:03.496Z,24.1
2018-09-02T06:41:01.798Z,24.6
2018-09-02T06:46:00.421Z,24.6
2018-09-02T06:50:59.098Z,24.7
2018-09-02T06:55:57.883Z,24.3
2018-09-02T07:00:56.447Z,24.9
2018-09-02T07:05:55.078Z,24.5
2018-09-02T07:10:54.164Z,25.1
2018-09-02T07:15:53.596Z,25.2
2018-09-02T07:20:52.810Z,25.4
2018-09-02T07:25:50.848Z,25.4
2018-09-02T07:30:49.648Z,25.5
2018-09-02T07:35:48.414Z,25.6
2018-09-02T07:40:47.194Z,25.6
2018-09-02T07:45:46.074Z,25.7
2018-09-02T07:50:44.609Z,25.7
2018-09-02T07:55:43.266Z,25.8
2018-09-02T08:00:41.783Z,25.9
2018-09-02T08:05:40.366Z,25.9
2018-09-02T08:10:39.037Z,26
2018-09-02T08:15:37.245Z,26
2018-09-02T08:20:35.965Z,26
2018-09-02T08:25:34.424Z,26
2018-09-02T08:30:33.051Z,26.1
2018-09-02T08:35:31.751Z,25.7
2018-09-02T08:40:30.417Z,25.9
2018-09-02T08:45:29.182Z,26.1
2018-09-02T08:50:27.834Z,26.1
2018-09-02T08:55:26.427Z,26.1
2018-09-02T09:00:24.827Z,26.2
2018-09-02T09:05:23.390Z,26.2
2018-09-02T09:10:21.488Z,26.2
2018-09-02T09:15:20.523Z,25.8
2018-09-02T09:20:19.073Z,26.3
2018-09-02T09:25:17.556Z,26.2
2018-09-02T09:30:16.466Z,26.4
2018-09-02T09:35:15.346Z,26.4
2018-09-02T09:40:14.467Z,26.5
2018-09-02T09:45:13.035Z,26.5
2018-09-02T09:50:11.841Z,26.5
2018-09-02T09:55:10.222Z,26.6
2018-09-02T10:00:08.775Z,26.6
2018-09-02T10:05:07.384Z,26.7
2018-09-02T10:10:05.859Z,26.7
2018-09-02T10:15:04.388Z,26.8
2018-09-02T10:20:02.882Z,26.9
2018-09-02T10:25:01.903Z,26.9
2018-09-02T10:30:00.645Z,27
2018-09-02T10:34:59.187Z,27.1
2018-09-02T10:39:57.811Z,27.1
2018-09-02T10:44:56.481Z,27.2
2018-09-02T10:49:55.037Z,27.3
2018-09-02T10:54:53.766Z,27.5
2018-09-02T10:59:52.311Z,27.6
2018-09-02T11:04:50.952Z,27.7
2018-09-02T11:09:49.595Z,27.8
2018-09-02T11:14:48.453Z,27.8
2018-09-02T11:19:46.895Z,27.8
2018-09-02T11:24:45.424Z,27.9
2018-09-02T11:29:44.011Z,27.9
2018-09-02T11:34:42.577Z,28
2018-09-02T11:39:41.108Z,28
2018-09-02T11:44:39.673Z,27.9
2018-09-02T11:49:38.184Z,28.1
2018-09-02T11:54:36.395Z,28.1
2018-09-02T11:59:34.962Z,28.2
2018-09-02T12:04:33.521Z,28.2
2018-09-02T12:09:32.162Z,28.3
2018-09-02T12:14:30.870Z,28.3
2018-09-02T12:19:29.734Z,28.4
2018-09-02T12:24:28.310Z,28.4
2018-09-02T12:29:26.726Z,28.4
2018-09-02T12:34:25.157Z,27.9
2018-09-02T12:39:23.533Z,28.5
2018-09-02T12:44:22.456Z,28.1
2018-09-02T12:49:20.616Z,28.6
2018-09-02T12:54:18.824Z,28.7
2018-09-02T12:59:17.358Z,28.7
2018-09-02T13:04:15.919Z,28.7
2018-09-02T13:09:14.346Z,28.8
2018-09-02T13:14:12.817Z,28.8
2018-09-02T13:19:11.300Z,28.8
2018-09-02T13:24:09.448Z,28.8
2018-09-02T13:29:08.002Z,28.9
2018-09-02T13:34:06.507Z,28.9
2018-09-02T13:39:05.082Z,28.9
2018-09-02T13:44:03.906Z,28.5
2018-09-02T13:49:02.523Z,28.5
2018-09-02T13:54:01.207Z,28.5
2018-09-02T13:58:59.881Z,28.9
2018-09-02T14:03:58.377Z,28.5
2018-09-02T14:08:56.737Z,29
2018-09-02T14:13:55.413Z,29
2018-09-02T14:18:53.788Z,29
2018-09-02T14:23:52.538Z,29
2018-09-02T14:28:51.373Z,29
2018-09-02T14:33:49.801Z,29
2018-09-02T14:38:48.260Z,29
2018-09-02T14:43:46.963Z,29.1
2018-09-02T14:48:45.643Z,29.1
2018-09-02T14:53:44.313Z,29.2
2018-09-02T14:58:42.970Z,29.3
2018-09-02T15:03:41.238Z,29.3
2018-09-02T15:08:39.899Z,28.9
2018-09-02T15:13:38.199Z,29.3
2018-09-02T15:18:36.902Z,29.3
2018-09-02T15:23:35.498Z,29.3
2018-09-02T15:28:34.112Z,29
2018-09-02T15:33:32.564Z,29.4
2018-09-02T15:38:30.719Z,29.4
2018-09-02T15:43:29.436Z,29.4
2018-09-02T15:48:28.024Z,29.4
2018-09-02T15:53:26.733Z,29.5
2018-09-02T15:58:25.511Z,29.5
2018-09-02T16:03:24.541Z,29.5
2018-09-02T16:08:23.075Z,29.5
2018-09-02T16:13:21.626Z,29.5
2018-09-02T16:18:20.930Z,29.4
2018-09-02T16:23:20.343Z,29.4
2018-09-02T16:28:18.940Z,29.4
2018-09-02T16:33:17.239Z,29.4
2018-09-02T16:38:15.780Z,29.4
2018-09-02T16:43:14.138Z,29.4
2018-09-02T16:48:12.888Z,29.4
2018-09-02T16:53:11.472Z,29.4
2018-09-02T16:58:10.009Z,29.4
2018-09-02T17:03:08.700Z,29.3
2018-09-02T17:08:07.435Z,29.3
2018-09-02T17:13:06.435Z,29.3
2018-09-02T17:18:05.655Z,29.2
2018-09-02T17:23:04.315Z,29.2
2018-09-02T17:28:02.393Z,29.1
2018-09-02T17:33:01.104Z,29.1
2018-09-02T17:37:59.509Z,29.1
2018-09-02T17:42:58.216Z,29
2018-09-02T17:47:56.860Z,29
2018-09-02T17:52:55.476Z,29
2018-09-02T17:57:54.054Z,28.9
2018-09-02T18:02:52.557Z,28.9
2018-09-02T18:07:51.153Z,28.8
2018-09-02T18:12:49.668Z,28.8
2018-09-02T18:17:48.147Z,28.7
2018-09-02T18:22:46.733Z,28.7
2018-09-02T18:27:45.414Z,28.6
2018-09-02T18:32:44.002Z,28.5
2018-09-02T18:37:42.529Z,28.5
2018-09-02T18:42:40.889Z,28.3
2018-09-02T18:47:39.587Z,28.4
2018-09-02T18:52:38.164Z,28.3
2018-09-02T18:57:36.803Z,28.3
2018-09-02T19:02:35.599Z,28.2
2018-09-02T19:07:34.113Z,28.2
2018-09-02T19:12:32.265Z,28.1
2018-09-02T19:17:30.555Z,28.1
2018-09-02T19:22:29.098Z,28
2018-09-02T19:27:27.714Z,28
2018-09-02T19:32:25.906Z,27.9
2018-09-02T19:37:24.435Z,27.8
2018-09-02T19:42:23.171Z,27.8
2018-09-02T19:47:21.708Z,27.7
2018-09-02T19:52:20.285Z,27.7
2018-09-02T19:57:18.562Z,27.6
2018-09-02T20:02:17.031Z,27.5
2018-09-02T20:07:15.499Z,27.5
2018-09-02T20:12:13.967Z,27.4
2018-09-02T20:17:12.550Z,27.4
2018-09-02T20:22:11.142Z,27.3
2018-09-02T20:27:09.741Z,27.3
2018-09-02T20:32:08.358Z,27.2
2018-09-02T20:37:06.745Z,27.2
2018-09-02T20:42:05.322Z,27.1
2018-09-02T20:47:03.779Z,27
2018-09-02T20:52:02.368Z,27
2018-09-02T20:57:00.562Z,26.9
2018-09-02T21:01:59.247Z,26.9
2018-09-02T21:06:57.651Z,26.8
2018-09-02T21:11:56.092Z,26.8
2018-09-02T21:16:54.604Z,26.7
2018-09-02T21:21:53.110Z,26.7
2018-09-02T21:26:50.993Z,26.6
2018-09-02T21:31:49.509Z,26.5
2018-09-02T21:36:48.040Z,26.5
2018-09-02T21:41:46.181Z,26.5
2018-09-02T21:46:44.656Z,26.4
2018-09-02T21:51:43.202Z,26.3
2018-09-02T21:56:41.853Z,26.3
2018-09-02T22:01:40.330Z,25.8
2018-09-02T22:06:38.825Z,26.2
2018-09-02T22:11:37.436Z,25.7
2018-09-02T22:16:35.777Z,26.1
2018-09-02T22:21:34.302Z,26
2018-09-02T22:26:32.878Z,26
2018-09-02T22:31:31.203Z,25.9
2018-09-02T22:36:29.669Z,25.9
2018-09-02T22:41:28.197Z,25.8
2018-09-02T22:46:26.572Z,25.8
2018-09-02T22:51:25.098Z,25.7
2018-09-02T22:56:23.570Z,25.6
2018-09-02T23:01:21.715Z,25.6
2018-09-02T23:06:20.299Z,25.5
2018-09-02T23:11:18.385Z,25.3
2018-09-02T23:16:16.855Z,25.4
2018-09-02T23:21:15.376Z,25.4
2018-09-02T23:26:13.835Z,25.3
2018-09-02T23:31:12.385Z,25.3
2018-09-02T23:36:10.961Z,25.2
2018-09-02T23:41:09.437Z,25.2
2018-09-02T23:46:07.894Z,25.1
2018-09-02T23:51:06.304Z,25.1
2018-09-02T23:56:04.641Z,25.1
